sensor_id;sensor_type;location;lat;lon;timestamp;temperature;humidity
68943;DHT22;60852;52.190;4.422;2024-01-30T00:01:19;10.02;82.93
68943;DHT22;60852;52.190;4.422;2024-01-30T00:03:45;10.02;82.97
68943;DHT22;60852;52.190;4.422;2024-01-30T00:06:11;10.03;83.04
68943;DHT22;60852;52.190;4.422;2024-01-30T00:08:37;10.04;82.98
68943;DHT22;60852;52.190;4.422;2024-01-30T00:11:03;10.09;83.05
68943;DHT22;60852;52.190;4.422;2024-01-30T00:13:28;10.09;83.07
68943;DHT22;60852;52.190;4.422;2024-01-30T00:15:54;10.10;82.87
68943;DHT22;60852;52.190;4.422;2024-01-30T00:18:19;10.13;82.86
68943;DHT22;60852;52.190;4.422;2024-01-30T00:20:45;10.16;82.82
68943;DHT22;60852;52.190;4.422;2024-01-30T00:23:10;10.17;82.77
68943;DHT22;60852;52.190;4.422;2024-01-30T00:25:36;10.24;82.71
68943;DHT22;60852;52.190;4.422;2024-01-30T00:28:01;10.21;82.68
68943;DHT22;60852;52.190;4.422;2024-01-30T00:30:27;10.25;82.65
68943;DHT22;60852;52.190;4.422;2024-01-30T00:32:53;10.25;82.66
68943;DHT22;60852;52.190;4.422;2024-01-30T00:35:19;10.21;82.70
68943;DHT22;60852;52.190;4.422;2024-01-30T00:37:47;10.25;82.64
68943;DHT22;60852;52.190;4.422;2024-01-30T00:40:12;10.30;82.53
68943;DHT22;60852;52.190;4.422;2024-01-30T00:42:44;10.31;82.50
68943;DHT22;60852;52.190;4.422;2024-01-30T00:45:16;10.36;82.40
68943;DHT22;60852;52.190;4.422;2024-01-30T00:47:43;10.40;82.33
68943;DHT22;60852;52.190;4.422;2024-01-30T00:50:08;10.38;82.28
68943;DHT22;60852;52.190;4.422;2024-01-30T00:52:34;10.41;82.31
68943;DHT22;60852;52.190;4.422;2024-01-30T00:55:01;10.42;82.25
68943;DHT22;60852;52.190;4.422;2024-01-30T00:57:26;10.44;82.05
68943;DHT22;60852;52.190;4.422;2024-01-30T00:59:52;10.42;82.04
68943;DHT22;60852;52.190;4.422;2024-01-30T01:02:18;10.42;82.11
68943;DHT22;60852;52.190;4.422;2024-01-30T01:04:43;10.44;81.91
68943;DHT22;60852;52.190;4.422;2024-01-30T01:07:10;10.42;81.89
68943;DHT22;60852;52.190;4.422;2024-01-30T01:09:36;10.42;81.88
68943;DHT22;60852;52.190;4.422;2024-01-30T01:12:02;10.47;81.91
68943;DHT22;60852;52.190;4.422;2024-01-30T01:14:27;10.50;81.75
68943;DHT22;60852;52.190;4.422;2024-01-30T01:16:52;10.48;81.81
68943;DHT22;60852;52.190;4.422;2024-01-30T01:19:18;10.48;81.82
68943;DHT22;60852;52.190;4.422;2024-01-30T01:21:43;10.47;81.83
68943;DHT22;60852;52.190;4.422;2024-01-30T01:24:09;10.44;81.62
68943;DHT22;60852;52.190;4.422;2024-01-30T01:26:34;10.48;81.88
68943;DHT22;60852;52.190;4.422;2024-01-30T01:29:00;10.54;81.75
68943;DHT22;60852;52.190;4.422;2024-01-30T01:31:25;10.52;81.82
68943;DHT22;60852;52.190;4.422;2024-01-30T01:33:55;10.58;81.86
68943;DHT22;60852;52.190;4.422;2024-01-30T01:36:20;10.58;81.71
68943;DHT22;60852;52.190;4.422;2024-01-30T01:38:46;10.60;81.72
68943;DHT22;60852;52.190;4.422;2024-01-30T01:41:11;10.61;81.63
68943;DHT22;60852;52.190;4.422;2024-01-30T01:43:36;10.62;81.63
68943;DHT22;60852;52.190;4.422;2024-01-30T01:46:05;10.61;81.66
68943;DHT22;60852;52.190;4.422;2024-01-30T01:48:31;10.67;81.57
68943;DHT22;60852;52.190;4.422;2024-01-30T01:50:57;10.64;81.53
68943;DHT22;60852;52.190;4.422;2024-01-30T01:53:23;10.61;81.41
68943;DHT22;60852;52.190;4.422;2024-01-30T01:55:50;10.61;81.63
68943;DHT22;60852;52.190;4.422;2024-01-30T01:58:19;10.61;81.33
68943;DHT22;60852;52.190;4.422;2024-01-30T02:00:46;10.61;81.41
68943;DHT22;60852;52.190;4.422;2024-01-30T02:03:13;10.60;81.31
68943;DHT22;60852;52.190;4.422;2024-01-30T02:05:39;10.60;81.50
68943;DHT22;60852;52.190;4.422;2024-01-30T02:08:06;10.61;81.36
68943;DHT22;60852;52.190;4.422;2024-01-30T02:10:32;10.64;81.38
68943;DHT22;60852;52.190;4.422;2024-01-30T02:12:57;10.61;81.31
68943;DHT22;60852;52.190;4.422;2024-01-30T02:15:23;10.62;81.28
68943;DHT22;60852;52.190;4.422;2024-01-30T02:17:48;10.61;81.32
68943;DHT22;60852;52.190;4.422;2024-01-30T02:20:13;10.62;81.19
68943;DHT22;60852;52.190;4.422;2024-01-30T02:22:41;10.64;81.10
68943;DHT22;60852;52.190;4.422;2024-01-30T02:25:06;10.60;81.20
68943;DHT22;60852;52.190;4.422;2024-01-30T02:27:32;10.58;81.14
68943;DHT22;60852;52.190;4.422;2024-01-30T02:29:58;10.58;81.22
68943;DHT22;60852;52.190;4.422;2024-01-30T02:32:23;10.58;81.09
68943;DHT22;60852;52.190;4.422;2024-01-30T02:34:49;10.58;81.17
68943;DHT22;60852;52.190;4.422;2024-01-30T02:37:14;10.60;81.05
68943;DHT22;60852;52.190;4.422;2024-01-30T02:39:40;10.64;81.01
68943;DHT22;60852;52.190;4.422;2024-01-30T02:42:05;10.57;81.00
68943;DHT22;60852;52.190;4.422;2024-01-30T02:44:31;10.57;81.07
68943;DHT22;60852;52.190;4.422;2024-01-30T02:46:56;10.54;81.06
68943;DHT22;60852;52.190;4.422;2024-01-30T02:49:21;10.55;81.09
68943;DHT22;60852;52.190;4.422;2024-01-30T02:51:47;10.52;81.18
68943;DHT22;60852;52.190;4.422;2024-01-30T02:54:13;10.50;81.32
68943;DHT22;60852;52.190;4.422;2024-01-30T02:56:38;10.54;81.28
68943;DHT22;60852;52.190;4.422;2024-01-30T02:59:04;10.55;81.26
68943;DHT22;60852;52.190;4.422;2024-01-30T03:01:29;10.51;81.26
68943;DHT22;60852;52.190;4.422;2024-01-30T03:03:54;10.55;81.32
68943;DHT22;60852;52.190;4.422;2024-01-30T03:06:20;10.60;81.39
68943;DHT22;60852;52.190;4.422;2024-01-30T03:08:47;10.55;81.26
68943;DHT22;60852;52.190;4.422;2024-01-30T03:11:12;10.58;81.28
68943;DHT22;60852;52.190;4.422;2024-01-30T03:13:37;10.55;81.40
68943;DHT22;60852;52.190;4.422;2024-01-30T03:16:03;10.54;81.41
68943;DHT22;60852;52.190;4.422;2024-01-30T03:18:28;10.57;81.32
68943;DHT22;60852;52.190;4.422;2024-01-30T03:20:54;10.55;81.20
68943;DHT22;60852;52.190;4.422;2024-01-30T03:23:19;10.57;81.28
68943;DHT22;60852;52.190;4.422;2024-01-30T03:25:45;10.55;81.31
68943;DHT22;60852;52.190;4.422;2024-01-30T03:28:10;10.54;81.21
68943;DHT22;60852;52.190;4.422;2024-01-30T03:30:36;10.60;81.24
68943;DHT22;60852;52.190;4.422;2024-01-30T03:33:01;10.60;81.13
68943;DHT22;60852;52.190;4.422;2024-01-30T03:35:27;10.60;81.23
68943;DHT22;60852;52.190;4.422;2024-01-30T03:37:52;10.62;81.26
68943;DHT22;60852;52.190;4.422;2024-01-30T03:40:18;10.64;81.34
68943;DHT22;60852;52.190;4.422;2024-01-30T03:42:43;10.68;81.21
68943;DHT22;60852;52.190;4.422;2024-01-30T03:45:09;10.71;81.11
68943;DHT22;60852;52.190;4.422;2024-01-30T03:47:34;10.67;81.22
68943;DHT22;60852;52.190;4.422;2024-01-30T03:49:59;10.72;81.22
68943;DHT22;60852;52.190;4.422;2024-01-30T03:52:25;10.73;81.17
68943;DHT22;60852;52.190;4.422;2024-01-30T03:54:50;10.71;81.21
68943;DHT22;60852;52.190;4.422;2024-01-30T03:57:16;10.73;81.20
68943;DHT22;60852;52.190;4.422;2024-01-30T03:59:44;10.71;81.28
68943;DHT22;60852;52.190;4.422;2024-01-30T04:02:10;10.72;81.34
68943;DHT22;60852;52.190;4.422;2024-01-30T04:04:37;10.71;81.31
68943;DHT22;60852;52.190;4.422;2024-01-30T04:07:02;10.73;81.40
68943;DHT22;60852;52.190;4.422;2024-01-30T04:09:28;10.76;81.39
68943;DHT22;60852;52.190;4.422;2024-01-30T04:11:54;10.82;81.52
68943;DHT22;60852;52.190;4.422;2024-01-30T04:14:19;10.86;81.61
68943;DHT22;60852;52.190;4.422;2024-01-30T04:16:45;10.92;81.70
68943;DHT22;60852;52.190;4.422;2024-01-30T04:19:10;10.91;81.47
68943;DHT22;60852;52.190;4.422;2024-01-30T04:21:35;10.92;81.76
68943;DHT22;60852;52.190;4.422;2024-01-30T04:24:01;10.93;81.67
68943;DHT22;60852;52.190;4.422;2024-01-30T04:26:26;11.02;81.52
68943;DHT22;60852;52.190;4.422;2024-01-30T04:28:52;11.03;81.50
68943;DHT22;60852;52.190;4.422;2024-01-30T04:31:17;11.05;81.55
68943;DHT22;60852;52.190;4.422;2024-01-30T04:33:43;11.09;81.31
68943;DHT22;60852;52.190;4.422;2024-01-30T04:36:09;11.08;81.40
68943;DHT22;60852;52.190;4.422;2024-01-30T04:38:38;11.09;81.36
68943;DHT22;60852;52.190;4.422;2024-01-30T04:41:04;11.12;81.43
68943;DHT22;60852;52.190;4.422;2024-01-30T04:43:30;11.12;81.27
68943;DHT22;60852;52.190;4.422;2024-01-30T04:45:56;11.13;81.43
68943;DHT22;60852;52.190;4.422;2024-01-30T04:48:21;11.15;81.23
68943;DHT22;60852;52.190;4.422;2024-01-30T04:50:47;11.15;81.45
68943;DHT22;60852;52.190;4.422;2024-01-30T04:53:12;11.16;81.28
68943;DHT22;60852;52.190;4.422;2024-01-30T04:55:38;11.18;81.42
68943;DHT22;60852;52.190;4.422;2024-01-30T04:58:04;11.18;81.62
68943;DHT22;60852;52.190;4.422;2024-01-30T05:00:29;11.23;81.62
68943;DHT22;60852;52.190;4.422;2024-01-30T05:02:55;11.29;81.50
68943;DHT22;60852;52.190;4.422;2024-01-30T05:05:21;11.34;81.44
68943;DHT22;60852;52.190;4.422;2024-01-30T05:07:47;11.36;81.03
68943;DHT22;60852;52.190;4.422;2024-01-30T05:10:13;11.39;81.22
68943;DHT22;60852;52.190;4.422;2024-01-30T05:12:39;11.31;80.90
68943;DHT22;60852;52.190;4.422;2024-01-30T05:15:05;11.36;81.20
68943;DHT22;60852;52.190;4.422;2024-01-30T05:17:30;11.36;80.98
68943;DHT22;60852;52.190;4.422;2024-01-30T05:19:56;11.37;80.97
68943;DHT22;60852;52.190;4.422;2024-01-30T05:22:21;11.39;81.13
68943;DHT22;60852;52.190;4.422;2024-01-30T05:24:46;11.41;81.02
68943;DHT22;60852;52.190;4.422;2024-01-30T05:27:12;11.44;80.86
68943;DHT22;60852;52.190;4.422;2024-01-30T05:29:39;11.46;80.93
68943;DHT22;60852;52.190;4.422;2024-01-30T05:32:04;11.47;80.85
68943;DHT22;60852;52.190;4.422;2024-01-30T05:34:35;11.46;80.93
68943;DHT22;60852;52.190;4.422;2024-01-30T05:37:01;11.51;80.97
68943;DHT22;60852;52.190;4.422;2024-01-30T05:39:26;11.56;80.90
68943;DHT22;60852;52.190;4.422;2024-01-30T05:41:52;11.61;80.79
68943;DHT22;60852;52.190;4.422;2024-01-30T05:44:17;11.66;80.59
68943;DHT22;60852;52.190;4.422;2024-01-30T05:46:42;11.66;80.27
68943;DHT22;60852;52.190;4.422;2024-01-30T05:49:08;11.67;80.24
68943;DHT22;60852;52.190;4.422;2024-01-30T05:51:33;11.68;80.11
68943;DHT22;60852;52.190;4.422;2024-01-30T05:53:59;11.70;79.90
68943;DHT22;60852;52.190;4.422;2024-01-30T05:56:24;11.66;79.99
68943;DHT22;60852;52.190;4.422;2024-01-30T05:58:50;11.60;80.35
68943;DHT22;60852;52.190;4.422;2024-01-30T06:01:16;11.61;80.31
68943;DHT22;60852;52.190;4.422;2024-01-30T06:03:41;11.61;80.15
68943;DHT22;60852;52.190;4.422;2024-01-30T06:06:09;11.60;80.23
68943;DHT22;60852;52.190;4.422;2024-01-30T06:08:34;11.59;80.26
68943;DHT22;60852;52.190;4.422;2024-01-30T06:11:00;11.59;80.27
68943;DHT22;60852;52.190;4.422;2024-01-30T06:13:26;11.60;80.35
68943;DHT22;60852;52.190;4.422;2024-01-30T06:15:52;11.59;80.35
68943;DHT22;60852;52.190;4.422;2024-01-30T06:18:17;11.59;80.42
68943;DHT22;60852;52.190;4.422;2024-01-30T06:20:43;11.53;80.39
68943;DHT22;60852;52.190;4.422;2024-01-30T06:23:08;11.54;80.45
68943;DHT22;60852;52.190;4.422;2024-01-30T06:25:34;11.54;80.44
68943;DHT22;60852;52.190;4.422;2024-01-30T06:27:59;11.56;80.39
68943;DHT22;60852;52.190;4.422;2024-01-30T06:30:25;11.56;80.59
68943;DHT22;60852;52.190;4.422;2024-01-30T06:32:50;11.57;80.68
68943;DHT22;60852;52.190;4.422;2024-01-30T06:35:16;11.54;80.52
68943;DHT22;60852;52.190;4.422;2024-01-30T06:37:42;11.54;80.86
68943;DHT22;60852;52.190;4.422;2024-01-30T06:40:08;11.57;80.67
68943;DHT22;60852;52.190;4.422;2024-01-30T06:42:34;11.57;80.93
68943;DHT22;60852;52.190;4.422;2024-01-30T06:44:59;11.51;80.93
68943;DHT22;60852;52.190;4.422;2024-01-30T06:47:25;11.53;80.88
68943;DHT22;60852;52.190;4.422;2024-01-30T06:49:50;11.59;80.90
68943;DHT22;60852;52.190;4.422;2024-01-30T06:52:16;11.59;80.99
68943;DHT22;60852;52.190;4.422;2024-01-30T06:54:41;11.60;80.85
68943;DHT22;60852;52.190;4.422;2024-01-30T06:57:07;11.64;80.96
68943;DHT22;60852;52.190;4.422;2024-01-30T06:59:37;11.64;80.93
68943;DHT22;60852;52.190;4.422;2024-01-30T07:02:09;11.64;80.92
68943;DHT22;60852;52.190;4.422;2024-01-30T07:04:34;11.66;80.98
68943;DHT22;60852;52.190;4.422;2024-01-30T07:07:02;11.71;80.79
68943;DHT22;60852;52.190;4.422;2024-01-30T07:09:28;11.73;80.69
68943;DHT22;60852;52.190;4.422;2024-01-30T07:11:54;11.74;80.63
68943;DHT22;60852;52.190;4.422;2024-01-30T07:14:20;11.73;80.77
68943;DHT22;60852;52.190;4.422;2024-01-30T07:16:46;11.75;80.69
68943;DHT22;60852;52.190;4.422;2024-01-30T07:19:11;11.75;80.68
68943;DHT22;60852;52.190;4.422;2024-01-30T07:21:37;11.71;80.83
68943;DHT22;60852;52.190;4.422;2024-01-30T07:24:02;11.73;80.87
68943;DHT22;60852;52.190;4.422;2024-01-30T07:26:28;11.74;80.97
68943;DHT22;60852;52.190;4.422;2024-01-30T07:28:53;11.74;81.11
68943;DHT22;60852;52.190;4.422;2024-01-30T07:31:18;11.75;80.96
68943;DHT22;60852;52.190;4.422;2024-01-30T07:33:46;11.75;80.99
68943;DHT22;60852;52.190;4.422;2024-01-30T07:36:11;11.77;81.01
68943;DHT22;60852;52.190;4.422;2024-01-30T07:38:37;11.73;81.05
68943;DHT22;60852;52.190;4.422;2024-01-30T07:41:02;11.67;81.25
68943;DHT22;60852;52.190;4.422;2024-01-30T07:43:28;11.67;81.53
68943;DHT22;60852;52.190;4.422;2024-01-30T07:45:53;11.67;81.51
68943;DHT22;60852;52.190;4.422;2024-01-30T07:48:19;11.75;81.43
68943;DHT22;60852;52.190;4.422;2024-01-30T07:50:44;11.75;81.18
68943;DHT22;60852;52.190;4.422;2024-01-30T07:53:10;11.81;81.05
68943;DHT22;60852;52.190;4.422;2024-01-30T07:55:35;11.80;81.01
68943;DHT22;60852;52.190;4.422;2024-01-30T07:58:01;11.88;80.99
68943;DHT22;60852;52.190;4.422;2024-01-30T08:00:26;11.82;81.07
68943;DHT22;60852;52.190;4.422;2024-01-30T08:02:54;11.85;80.94
68943;DHT22;60852;52.190;4.422;2024-01-30T08:05:21;11.90;81.01
68943;DHT22;60852;52.190;4.422;2024-01-30T08:07:48;11.91;80.90
68943;DHT22;60852;52.190;4.422;2024-01-30T08:10:14;11.95;80.72
68943;DHT22;60852;52.190;4.422;2024-01-30T08:12:40;11.91;81.00
68943;DHT22;60852;52.190;4.422;2024-01-30T08:15:06;11.87;81.07
68943;DHT22;60852;52.190;4.422;2024-01-30T08:17:32;11.85;81.46
68943;DHT22;60852;52.190;4.422;2024-01-30T08:19:58;11.92;81.23
68943;DHT22;60852;52.190;4.422;2024-01-30T08:22:24;11.92;81.24
68943;DHT22;60852;52.190;4.422;2024-01-30T08:24:49;11.97;81.19
68943;DHT22;60852;52.190;4.422;2024-01-30T08:27:15;11.98;81.01
68943;DHT22;60852;52.190;4.422;2024-01-30T08:29:40;11.97;81.04
68943;DHT22;60852;52.190;4.422;2024-01-30T08:32:07;11.91;81.13
68943;DHT22;60852;52.190;4.422;2024-01-30T08:34:32;11.81;81.15
68943;DHT22;60852;52.190;4.422;2024-01-30T08:36:58;11.67;81.65
68943;DHT22;60852;52.190;4.422;2024-01-30T08:39:23;11.67;81.83
68943;DHT22;60852;52.190;4.422;2024-01-30T08:41:50;11.68;81.99
68943;DHT22;60852;52.190;4.422;2024-01-30T08:44:16;11.67;82.01
68943;DHT22;60852;52.190;4.422;2024-01-30T08:46:43;11.54;82.34
68943;DHT22;60852;52.190;4.422;2024-01-30T08:49:10;11.49;82.46
68943;DHT22;60852;52.190;4.422;2024-01-30T08:51:35;11.37;82.68
68943;DHT22;60852;52.190;4.422;2024-01-30T08:54:02;11.30;82.77
68943;DHT22;60852;52.190;4.422;2024-01-30T08:56:28;11.29;82.87
68943;DHT22;60852;52.190;4.422;2024-01-30T08:58:53;11.30;82.87
68943;DHT22;60852;52.190;4.422;2024-01-30T09:01:19;11.24;83.07
68943;DHT22;60852;52.190;4.422;2024-01-30T09:03:45;11.15;83.42
68943;DHT22;60852;52.190;4.422;2024-01-30T09:06:12;11.18;83.71
68943;DHT22;60852;52.190;4.422;2024-01-30T09:08:38;11.19;83.32
68943;DHT22;60852;52.190;4.422;2024-01-30T09:11:14;11.24;83.22
68943;DHT22;60852;52.190;4.422;2024-01-30T09:13:40;11.27;82.96
68943;DHT22;60852;52.190;4.422;2024-01-30T09:16:05;11.27;82.79
68943;DHT22;60852;52.190;4.422;2024-01-30T09:18:31;11.26;82.45
68943;DHT22;60852;52.190;4.422;2024-01-30T09:20:57;11.02;82.68
68943;DHT22;60852;52.190;4.422;2024-01-30T09:23:23;10.92;82.88
68943;DHT22;60852;52.190;4.422;2024-01-30T09:25:48;10.85;83.07
68943;DHT22;60852;52.190;4.422;2024-01-30T09:28:14;10.76;82.96
68943;DHT22;60852;52.190;4.422;2024-01-30T09:30:39;10.75;83.13
68943;DHT22;60852;52.190;4.422;2024-01-30T09:33:05;10.69;82.90
68943;DHT22;60852;52.190;4.422;2024-01-30T09:35:31;10.58;82.84
68943;DHT22;60852;52.190;4.422;2024-01-30T09:37:57;10.38;82.84
68943;DHT22;60852;52.190;4.422;2024-01-30T09:40:24;10.31;82.79
68943;DHT22;60852;52.190;4.422;2024-01-30T09:42:50;10.42;82.26
68943;DHT22;60852;52.190;4.422;2024-01-30T09:45:18;10.41;81.75
68943;DHT22;60852;52.190;4.422;2024-01-30T09:47:45;10.40;81.79
68943;DHT22;60852;52.190;4.422;2024-01-30T09:50:12;10.37;81.93
68943;DHT22;60852;52.190;4.422;2024-01-30T09:52:39;10.40;81.68
68943;DHT22;60852;52.190;4.422;2024-01-30T09:55:06;10.33;81.84
68943;DHT22;60852;52.190;4.422;2024-01-30T09:57:31;10.40;81.85
68943;DHT22;60852;52.190;4.422;2024-01-30T09:59:57;10.42;81.68
68943;DHT22;60852;52.190;4.422;2024-01-30T10:02:23;10.34;81.79
68943;DHT22;60852;52.190;4.422;2024-01-30T10:04:50;10.34;82.34
68943;DHT22;60852;52.190;4.422;2024-01-30T10:07:19;10.37;82.60
68943;DHT22;60852;52.190;4.422;2024-01-30T10:09:45;10.37;82.98
68943;DHT22;60852;52.190;4.422;2024-01-30T10:12:11;10.34;83.47
68943;DHT22;60852;52.190;4.422;2024-01-30T10:14:40;10.27;83.25
68943;DHT22;60852;52.190;4.422;2024-01-30T10:17:08;10.23;83.12
68943;DHT22;60852;52.190;4.422;2024-01-30T10:19:35;10.17;82.77
68943;DHT22;60852;52.190;4.422;2024-01-30T10:22:01;10.12;82.69
68943;DHT22;60852;52.190;4.422;2024-01-30T10:24:26;10.24;82.64
68943;DHT22;60852;52.190;4.422;2024-01-30T10:26:53;10.16;83.16
68943;DHT22;60852;52.190;4.422;2024-01-30T10:29:18;10.14;83.67
68943;DHT22;60852;52.190;4.422;2024-01-30T10:31:44;10.09;84.32
68943;DHT22;60852;52.190;4.422;2024-01-30T10:34:10;10.13;84.41
68943;DHT22;60852;52.190;4.422;2024-01-30T10:36:40;10.12;84.78
68943;DHT22;60852;52.190;4.422;2024-01-30T10:39:08;10.00;85.37
68943;DHT22;60852;52.190;4.422;2024-01-30T10:41:43;9.99;86.09
68943;DHT22;60852;52.190;4.422;2024-01-30T10:44:17;9.86;86.23
68943;DHT22;60852;52.190;4.422;2024-01-30T10:46:50;9.94;86.31
68943;DHT22;60852;52.190;4.422;2024-01-30T10:49:16;9.76;86.50
68943;DHT22;60852;52.190;4.422;2024-01-30T10:51:43;9.87;86.30
68943;DHT22;60852;52.190;4.422;2024-01-30T10:54:10;9.87;86.27
68943;DHT22;60852;52.190;4.422;2024-01-30T10:56:36;9.72;86.35
68943;DHT22;60852;52.190;4.422;2024-01-30T10:59:02;9.71;85.66
68943;DHT22;60852;52.190;4.422;2024-01-30T11:01:30;9.68;85.57
68943;DHT22;60852;52.190;4.422;2024-01-30T11:03:56;9.72;85.61
68943;DHT22;60852;52.190;4.422;2024-01-30T11:06:22;9.78;85.44
68943;DHT22;60852;52.190;4.422;2024-01-30T11:09:05;9.83;85.39
68943;DHT22;60852;52.190;4.422;2024-01-30T11:11:57;9.89;84.84
68943;DHT22;60852;52.190;4.422;2024-01-30T11:14:30;9.79;84.54
68943;DHT22;60852;52.190;4.422;2024-01-30T11:16:59;9.75;84.50
68943;DHT22;60852;52.190;4.422;2024-01-30T11:19:26;9.75;84.25
68943;DHT22;60852;52.190;4.422;2024-01-30T11:21:55;9.82;83.72
68943;DHT22;60852;52.190;4.422;2024-01-30T11:24:23;9.82;83.27
68943;DHT22;60852;52.190;4.422;2024-01-30T11:26:50;9.79;83.32
68943;DHT22;60852;52.190;4.422;2024-01-30T11:29:24;9.89;82.93
68943;DHT22;60852;52.190;4.422;2024-01-30T11:31:57;9.99;82.72
68943;DHT22;60852;52.190;4.422;2024-01-30T11:34:23;10.04;82.54
68943;DHT22;60852;52.190;4.422;2024-01-30T11:36:56;9.94;82.47
68943;DHT22;60852;52.190;4.422;2024-01-30T11:39:25;9.90;82.76
68943;DHT22;60852;52.190;4.422;2024-01-30T11:41:52;9.81;82.98
68943;DHT22;60852;52.190;4.422;2024-01-30T11:44:22;9.81;83.48
68943;DHT22;60852;52.190;4.422;2024-01-30T11:46:48;9.83;83.64
68943;DHT22;60852;52.190;4.422;2024-01-30T11:49:15;9.81;84.05
68943;DHT22;60852;52.190;4.422;2024-01-30T11:51:41;9.82;84.21
68943;DHT22;60852;52.190;4.422;2024-01-30T11:54:07;9.73;84.28
68943;DHT22;60852;52.190;4.422;2024-01-30T11:56:33;9.66;84.60
68943;DHT22;60852;52.190;4.422;2024-01-30T11:58:59;9.71;84.74
68943;DHT22;60852;52.190;4.422;2024-01-30T12:01:26;9.79;84.46
68943;DHT22;60852;52.190;4.422;2024-01-30T12:03:52;9.82;84.03
68943;DHT22;60852;52.190;4.422;2024-01-30T12:06:18;9.99;84.01
68943;DHT22;60852;52.190;4.422;2024-01-30T12:11:22;10.00;83.13
68943;DHT22;60852;52.190;4.422;2024-01-30T12:13:47;9.93;83.03
68943;DHT22;60852;52.190;4.422;2024-01-30T12:16:13;9.92;82.97
68943;DHT22;60852;52.190;4.422;2024-01-30T12:18:39;9.99;82.80
68943;DHT22;60852;52.190;4.422;2024-01-30T12:21:04;10.00;82.73
68943;DHT22;60852;52.190;4.422;2024-01-30T12:23:30;9.81;83.38
68943;DHT22;60852;52.190;4.422;2024-01-30T12:25:55;9.73;84.03
68943;DHT22;60852;52.190;4.422;2024-01-30T12:28:21;9.75;84.13
68943;DHT22;60852;52.190;4.422;2024-01-30T12:30:47;9.65;84.58
68943;DHT22;60852;52.190;4.422;2024-01-30T12:33:18;9.59;84.88
68943;DHT22;60852;52.190;4.422;2024-01-30T12:35:47;9.49;85.33
68943;DHT22;60852;52.190;4.422;2024-01-30T12:38:14;9.49;85.74
68943;DHT22;60852;52.190;4.422;2024-01-30T12:40:40;9.46;85.90
68943;DHT22;60852;52.190;4.422;2024-01-30T12:43:05;9.52;86.04
68943;DHT22;60852;52.190;4.422;2024-01-30T12:45:31;9.52;86.18
68943;DHT22;60852;52.190;4.422;2024-01-30T12:47:56;9.44;86.56
68943;DHT22;60852;52.190;4.422;2024-01-30T12:50:23;9.48;86.48
68943;DHT22;60852;52.190;4.422;2024-01-30T12:52:49;9.46;86.74
68943;DHT22;60852;52.190;4.422;2024-01-30T12:55:15;9.49;86.85
68943;DHT22;60852;52.190;4.422;2024-01-30T12:57:40;9.41;86.98
68943;DHT22;60852;52.190;4.422;2024-01-30T13:00:07;9.39;87.26
68943;DHT22;60852;52.190;4.422;2024-01-30T13:02:36;9.36;87.62
68943;DHT22;60852;52.190;4.422;2024-01-30T13:05:03;9.41;87.63
68943;DHT22;60852;52.190;4.422;2024-01-30T13:07:29;9.41;87.39
68943;DHT22;60852;52.190;4.422;2024-01-30T13:09:54;9.34;87.71
68943;DHT22;60852;52.190;4.422;2024-01-30T13:12:20;9.34;87.79
68943;DHT22;60852;52.190;4.422;2024-01-30T13:14:45;9.34;87.67
68943;DHT22;60852;52.190;4.422;2024-01-30T13:17:11;9.36;87.61
68943;DHT22;60852;52.190;4.422;2024-01-30T13:19:37;9.30;87.47
68943;DHT22;60852;52.190;4.422;2024-01-30T13:22:02;9.27;87.89
68943;DHT22;60852;52.190;4.422;2024-01-30T13:24:28;9.32;88.07
68943;DHT22;60852;52.190;4.422;2024-01-30T13:26:53;9.38;87.94
68943;DHT22;60852;52.190;4.422;2024-01-30T13:29:19;9.36;87.87
68943;DHT22;60852;52.190;4.422;2024-01-30T13:31:44;9.35;87.87
68943;DHT22;60852;52.190;4.422;2024-01-30T13:34:11;9.32;88.15
68943;DHT22;60852;52.190;4.422;2024-01-30T13:36:38;9.31;88.12
68943;DHT22;60852;52.190;4.422;2024-01-30T13:39:03;9.28;88.23
68943;DHT22;60852;52.190;4.422;2024-01-30T13:41:32;9.31;88.40
68943;DHT22;60852;52.190;4.422;2024-01-30T13:43:58;9.30;88.25
68943;DHT22;60852;52.190;4.422;2024-01-30T13:46:23;9.21;88.36
68943;DHT22;60852;52.190;4.422;2024-01-30T13:48:49;9.17;88.66
68943;DHT22;60852;52.190;4.422;2024-01-30T13:51:14;9.15;88.65
68943;DHT22;60852;52.190;4.422;2024-01-30T13:53:42;9.15;88.61
68943;DHT22;60852;52.190;4.422;2024-01-30T13:56:07;9.17;88.71
68943;DHT22;60852;52.190;4.422;2024-01-30T13:58:33;9.14;88.74
68943;DHT22;60852;52.190;4.422;2024-01-30T14:00:59;9.14;88.77
68943;DHT22;60852;52.190;4.422;2024-01-30T14:03:24;9.13;88.73
68943;DHT22;60852;52.190;4.422;2024-01-30T14:05:50;9.13;88.70
68943;DHT22;60852;52.190;4.422;2024-01-30T14:08:15;9.15;88.83
68943;DHT22;60852;52.190;4.422;2024-01-30T14:10:41;9.10;88.71
68943;DHT22;60852;52.190;4.422;2024-01-30T14:13:06;9.10;88.73
68943;DHT22;60852;52.190;4.422;2024-01-30T14:15:32;9.07;88.74
68943;DHT22;60852;52.190;4.422;2024-01-30T14:17:57;9.05;89.01
68943;DHT22;60852;52.190;4.422;2024-01-30T14:20:23;9.01;89.09
68943;DHT22;60852;52.190;4.422;2024-01-30T14:22:48;9.08;89.05
68943;DHT22;60852;52.190;4.422;2024-01-30T14:25:14;9.04;88.98
68943;DHT22;60852;52.190;4.422;2024-01-30T14:27:39;9.08;89.14
68943;DHT22;60852;52.190;4.422;2024-01-30T14:30:05;9.04;89.18
68943;DHT22;60852;52.190;4.422;2024-01-30T14:32:31;9.07;89.26
68943;DHT22;60852;52.190;4.422;2024-01-30T14:34:56;9.08;89.13
68943;DHT22;60852;52.190;4.422;2024-01-30T14:37:22;9.08;89.20
68943;DHT22;60852;52.190;4.422;2024-01-30T14:39:48;9.07;89.06
68943;DHT22;60852;52.190;4.422;2024-01-30T14:42:14;9.11;89.14
68943;DHT22;60852;52.190;4.422;2024-01-30T14:44:42;9.17;89.05
68943;DHT22;60852;52.190;4.422;2024-01-30T14:47:07;9.15;88.84
68943;DHT22;60852;52.190;4.422;2024-01-30T14:49:33;9.08;88.93
68943;DHT22;60852;52.190;4.422;2024-01-30T14:51:59;9.18;89.08
68943;DHT22;60852;52.190;4.422;2024-01-30T14:54:26;9.14;89.01
68943;DHT22;60852;52.190;4.422;2024-01-30T14:56:51;9.07;88.80
68943;DHT22;60852;52.190;4.422;2024-01-30T14:59:17;9.08;89.27
68943;DHT22;60852;52.190;4.422;2024-01-30T15:01:42;9.18;89.14
68943;DHT22;60852;52.190;4.422;2024-01-30T15:04:09;9.14;88.89
68943;DHT22;60852;52.190;4.422;2024-01-30T15:06:35;9.15;89.09
68943;DHT22;60852;52.190;4.422;2024-01-30T15:09:00;9.20;88.98
68943;DHT22;60852;52.190;4.422;2024-01-30T15:11:26;9.23;88.80
68943;DHT22;60852;52.190;4.422;2024-01-30T15:13:51;9.27;88.90
68943;DHT22;60852;52.190;4.422;2024-01-30T15:16:17;9.41;88.75
68943;DHT22;60852;52.190;4.422;2024-01-30T15:18:42;9.36;88.24
68943;DHT22;60852;52.190;4.422;2024-01-30T15:21:07;9.42;88.47
68943;DHT22;60852;52.190;4.422;2024-01-30T15:23:33;9.38;87.90
68943;DHT22;60852;52.190;4.422;2024-01-30T15:25:58;9.36;88.09
68943;DHT22;60852;52.190;4.422;2024-01-30T15:28:37;9.41;87.91
68943;DHT22;60852;52.190;4.422;2024-01-30T15:31:04;9.39;88.05